Historyczne dane pomiarowe

Dodano dane terminowe – wersja testowa.

Dane z okresu 1951-2019

Wersja bazy: 1.34 [2019-03-16, lista zmian], aktualizacja planowana na 2019-04-15

Dane meteo z obszaru Polski uzyskane na podstawie danych udostępnionych przez Instytut Meteorologii i Gospodarki Wodnej – Państwowy Instytut Badawczy.

 

Wybierz Datę:    

       

TemperaturaWilgotnośćWiatrCiśnienieOpadyŚniegCzas trwania zjawisk
 Stacja t tx tn tng RH VA  wxwx mslp ppp RRR   cm mm wxwxwxwxwxwxwx
2012-08-13 15.6 23.4 8.1 7.5-- 1.7----- 0.0------------
2012-08-14 16.8 24.4 10.6 10.5-- 1.7----- 0.0------------
2012-08-15 16.7 22.9 10.1 10.0-- 2.0----- 0.0------------
2012-08-16 18.7 23.9 14.2 14.0-- 1.7----- 0.0------------
2012-08-17 19.0 25.0 11.8 11.5-- 1.7----- 0.0------------
2012-08-18 16.8 25.5 9.6 9.5-- 1.7----- 0.0------------
2012-08-19 22.7 32.0 12.1 11.0-- 1.7----- 0.0------------
2012-08-20 24.2 35.5 15.2 13.5-- 1.7----- 1.3------------
2012-08-21 22.5 28.5 17.2 17.0-- 1.7----- 0.0------------
2012-08-22 22.0 27.5 16.7 16.5-- 3.0----- 0.8------------
2012-08-23 16.6 26.0 9.1 8.1-- 1.7----- 0.0------------
2012-08-24 16.8 25.5 8.1 7.5-- 2.0----- 3.1------------
2012-08-25 19.1 26.5 13.6 13.5-- 3.0----- 0.0------------
2012-08-26 19.0 23.9 15.2 14.5-- 2.3----- 0.0------------
2012-08-27 16.7 21.9 13.1 12.5-- 1.7----- 0.0------------
2012-08-28 14.1 22.9 3.2 3.1-- 2.0----- 0.0------------
2012-08-29 19.3 27.0 10.1 8.5-- 1.7----- 0.0------------
2012-08-30 19.8 29.0 9.6 9.0-- 1.7----- 0.0------------
2012-08-31 18.4 23.7 14.2 13.5-- 3.3----- 1.8------------
2012-09-01 16.1 20.4 12.6 12.5-- 1.7----- 0.0------------
2012-09-02 15.8 23.4 7.6 6.5-- 1.7----- 0.0------------
2012-09-03 17.5 25.0 11.4 10.0-- 1.7----- 0.0------------
2012-09-04 15.5 21.4 7.6 7.0-- 1.7----- 0.0------------
2012-09-05 16.3 23.1 8.6 7.0-- 2.0----- 0.0------------
2012-09-06 14.0 18.5 9.6 8.0-- 1.7----- 0.0------------
2012-09-07 13.1 19.4 5.7 3.6-- 2.3----- 1.3------------
2012-09-08 14.4 18.9 9.1 8.5-- 1.7----- 0.0------------
2012-09-09 15.6 21.9 9.1 8.2-- 2.3----- 0.0------------
2012-09-10 19.6 29.5 9.6 7.5-- 1.3----- 0.0------------
2012-09-11 20.9 32.5 10.6 8.5-- 1.3----- 0.0------------
148.3 ms

 

Źródłem pochodzenia danych jest Instytut Meteorologii i Gospodarki Wodnej – Państwowy Instytut Badawczy. Dane Instytutu Meteorologii i Gospodarki Wodnej – Państwowego Instytutu Badawczego zostały przetworzone.

Dane źródłowe można odnaleźć na stronie https://dane.imgw.pl